Time;durP1;ratioP1;P1;durP2;ratioP2;P2;SDS_P1;SDS_P2;PMS_P1;PMS_P2;Temp;Humidity;BMP_temperature;BMP_pressure;BME280_temperature;BME280_humidity;BME280_pressure;Samples;Min_cycle;Max_cycle;Signal;HPM_P1;HPM_P2
2021/11/08 00:04:50;;;;;;;10.70;7.20;;;;;;;8.83;60.36;98847.97;236368;1193;139885;-57
2021/11/08 00:09:54;;;;;;;12.90;7.40;;;;;;;8.81;60.31;98853.55;236206;1194;139043;-59
2021/11/08 00:14:59;;;;;;;11.80;7.40;;;;;;;8.74;60.49;98853.22;236358;1195;138433;-60
2021/11/08 00:20:19;;;;;;;9.50;6.60;;;;;;;8.74;60.61;98858.90;236293;1194;138404;-58
2021/11/08 00:25:23;;;;;;;10.00;7.20;;;;;;;8.73;60.40;98866.41;236611;1193;138790;-58
2021/11/08 00:30:27;;;;;;;11.40;6.60;;;;;;;8.70;60.59;98869.39;236181;1195;138736;-58
2021/11/08 00:35:30;;;;;;;13.30;7.10;;;;;;;8.71;60.57;98876.41;236536;1194;138359;-59
2021/11/08 00:40:35;;;;;;;11.00;6.70;;;;;;;8.72;60.53;98876.88;236464;1193;138617;-57
2021/11/08 00:45:39;;;;;;;9.00;6.70;;;;;;;8.72;60.79;98877.40;236365;1195;138635;-58
2021/11/08 00:50:43;;;;;;;9.30;6.00;;;;;;;8.74;60.81;98890.00;236331;1195;139345;-58
2021/11/08 00:55:46;;;;;;;9.30;6.60;;;;;;;8.72;60.81;98895.06;236327;1193;138118;-60
2021/11/08 01:00:50;;;;;;;9.40;6.00;;;;;;;8.68;60.88;98901.67;236530;1193;138528;-59
2021/11/08 01:05:54;;;;;;;8.40;5.70;;;;;;;8.64;60.79;98910.61;236607;1194;138770;-59
2021/11/08 01:10:58;;;;;;;10.20;6.40;;;;;;;8.62;60.98;98908.40;236116;1195;138524;-59
2021/11/08 01:16:03;;;;;;;10.00;6.30;;;;;;;8.65;60.98;98912.65;236531;1193;138904;-60
2021/11/08 01:21:08;;;;;;;9.80;6.30;;;;;;;8.65;60.97;98917.23;235957;1193;138828;-58
2021/11/08 01:26:14;;;;;;;9.60;5.80;;;;;;;8.64;61.14;98920.11;236645;1193;139431;-59
2021/11/08 01:31:17;;;;;;;9.10;6.30;;;;;;;8.62;61.08;98928.77;236418;1186;140386;-61
2021/11/08 01:36:27;;;;;;;8.10;5.70;;;;;;;8.56;61.41;98929.29;236318;1195;138440;-60
2021/11/08 01:41:30;;;;;;;9.30;6.20;;;;;;;8.57;61.61;98931.30;236374;1193;138634;-60
2021/11/08 01:46:36;;;;;;;10.60;6.40;;;;;;;8.66;61.25;98940.52;236440;1193;139348;-57
2021/11/08 01:51:39;;;;;;;8.10;5.80;;;;;;;8.72;61.36;98946.58;236351;1194;138664;-58
2021/11/08 01:56:42;;;;;;;8.70;5.40;;;;;;;8.71;61.33;98945.37;236289;1194;137738;-59
2021/11/08 02:01:46;;;;;;;7.40;5.60;;;;;;;8.68;61.45;98949.61;236561;1193;139396;-59
2021/11/08 02:06:49;;;;;;;12.90;6.10;;;;;;;8.64;61.40;98949.11;236618;1193;139476;-59
2021/11/08 02:11:54;;;;;;;8.70;5.90;;;;;;;8.61;61.60;98949.85;236406;1194;138712;-59
2021/11/08 02:16:58;;;;;;;11.10;6.20;;;;;;;8.55;61.74;98950.34;236760;1194;138253;-59
2021/11/08 02:22:03;;;;;;;9.30;5.50;;;;;;;8.48;61.71;98958.67;236608;1194;139795;-59
2021/11/08 02:27:07;;;;;;;10.70;5.80;;;;;;;8.45;61.85;98963.79;236324;1195;139832;-59
2021/11/08 02:32:11;;;;;;;8.50;5.30;;;;;;;8.46;61.85;98970.85;236502;1195;139180;-58
2021/11/08 02:37:15;;;;;;;10.70;5.90;;;;;;;8.47;61.92;98964.05;236625;1194;139182;-59
2021/11/08 02:42:18;;;;;;;10.20;6.00;;;;;;;8.50;62.03;98958.73;235949;1195;139455;-60
2021/11/08 02:47:22;;;;;;;7.50;5.30;;;;;;;8.51;62.13;98957.42;236425;1193;138916;-58
2021/11/08 02:52:26;;;;;;;10.90;6.30;;;;;;;8.46;61.99;98968.16;236316;1193;138668;-58
2021/11/08 02:57:29;;;;;;;8.50;6.00;;;;;;;8.40;62.00;98974.31;236415;1193;138596;-60
2021/11/08 03:02:36;;;;;;;8.80;6.20;;;;;;;8.31;61.88;98969.27;236527;1187;138502;-60
2021/11/08 03:07:39;;;;;;;10.10;6.40;;;;;;;8.23;62.16;98977.67;236534;1193;139047;-59
2021/11/08 03:12:44;;;;;;;8.50;6.20;;;;;;;8.22;62.37;98980.21;236569;1193;139266;-59
2021/11/08 03:17:47;;;;;;;9.10;6.30;;;;;;;8.22;62.28;98988.00;236340;1193;138592;-58
2021/11/08 03:22:57;;;;;;;9.90;7.00;;;;;;;8.20;62.49;98990.40;236197;1193;138795;-60
2021/11/08 03:28:03;;;;;;;8.00;6.30;;;;;;;8.16;62.50;98992.88;236311;1194;139167;-60
2021/11/08 03:33:10;;;;;;;10.60;6.80;;;;;;;8.16;62.53;98989.36;236450;1193;138622;-58
2021/11/08 03:38:14;;;;;;;9.80;7.20;;;;;;;8.16;62.78;99001.05;236374;1193;138843;-60
2021/11/08 03:43:20;;;;;;;9.70;6.40;;;;;;;8.17;62.82;99007.88;236154;1194;142764;-59
2021/11/08 03:48:23;;;;;;;8.20;6.40;;;;;;;8.23;62.78;99001.89;236306;1195;138825;-61
2021/11/08 03:53:27;;;;;;;9.90;6.60;;;;;;;8.26;62.71;99001.73;236543;1193;139790;-60
2021/11/08 03:58:35;;;;;;;9.20;6.70;;;;;;;8.27;62.76;98998.45;236390;1193;138458;-60
2021/11/08 04:03:39;;;;;;;9.20;6.50;;;;;;;8.26;62.69;99002.59;236351;1195;138192;-58
2021/11/08 04:08:43;;;;;;;10.30;7.30;;;;;;;8.25;62.91;99007.09;236048;1193;138276;-58
2021/11/08 04:13:46;;;;;;;9.30;7.00;;;;;;;8.25;63.00;99012.75;235837;1193;138654;-60
2021/11/08 04:18:51;;;;;;;10.40;7.50;;;;;;;8.27;62.66;99015.83;236582;1193;139401;-59
2021/11/08 04:23:55;;;;;;;11.40;6.60;;;;;;;8.26;62.88;99020.66;236658;1193;140377;-59
2021/11/08 04:29:03;;;;;;;11.00;7.10;;;;;;;8.26;62.91;99020.66;236312;1194;138282;-60
2021/11/08 04:34:29;;;;;;;10.70;7.00;;;;;;;8.23;62.89;99017.77;236454;1195;139485;-61
2021/11/08 04:51:17;;;;;;;24.40;17.40;;;;;;;8.32;63.21;99017.84;236273;1193;139623;-59
2021/11/08 05:22:59;;;;;;;12.40;7.10;;;;;;;8.19;62.98;99035.86;236501;1193;138844;-60
2021/11/08 05:33:16;;;;;;;10.70;6.50;;;;;;;8.10;63.23;99045.52;236295;1193;139355;-59
2021/11/08 05:38:19;;;;;;;11.70;7.00;;;;;;;8.13;63.30;99046.45;236583;1193;139108;-60
2021/11/08 05:43:23;;;;;;;9.10;6.30;;;;;;;8.09;63.32;99049.98;236510;1195;138454;-58
2021/11/08 05:48:26;;;;;;;10.90;6.50;;;;;;;8.07;63.33;99058.59;236607;1186;138677;-61
2021/11/08 05:53:29;;;;;;;9.60;6.80;;;;;;;8.00;63.33;99071.98;236568;1193;138915;-60
2021/11/08 06:52:16;;;;;;;11.10;5.90;;;;;;;8.12;63.91;99148.07;236174;1193;138254;-60
2021/11/08 06:57:20;;;;;;;10.90;6.50;;;;;;;8.14;63.87;99146.73;236164;1193;140623;-58
2021/11/08 07:02:25;;;;;;;10.90;7.10;;;;;;;8.14;63.74;99147.29;236392;1195;138586;-63
2021/11/08 07:07:28;;;;;;;12.00;6.40;;;;;;;8.11;63.75;99149.70;236270;1193;140947;-58
2021/11/08 07:12:32;;;;;;;11.40;7.40;;;;;;;8.13;63.81;99153.33;236347;1193;138405;-57
2021/11/08 07:17:35;;;;;;;11.30;7.40;;;;;;;8.18;63.89;99157.16;236340;1193;138947;-59
2021/11/08 07:22:38;;;;;;;15.00;7.40;;;;;;;8.21;63.80;99161.41;236291;1193;139329;-59
2021/11/08 07:27:42;;;;;;;14.20;7.80;;;;;;;8.26;63.92;99158.35;236336;1194;138981;-62
2021/11/08 07:32:45;;;;;;;17.10;8.20;;;;;;;8.34;63.87;99169.97;236374;1193;139397;-59
2021/11/08 07:37:48;;;;;;;16.30;7.70;;;;;;;8.39;63.75;99178.73;236417;1195;138763;-60
2021/11/08 07:42:51;;;;;;;17.10;8.40;;;;;;;8.44;63.72;99182.75;236231;1194;138954;-58
2021/11/08 07:47:54;;;;;;;14.90;8.40;;;;;;;8.50;63.79;99191.23;236169;1193;138666;-59
2021/11/08 07:53:12;;;;;;;16.70;8.90;;;;;;;8.62;63.81;99199.52;236751;1193;138969;-57
2021/11/08 07:58:15;;;;;;;15.20;7.60;;;;;;;8.74;63.84;99205.93;236580;1193;139723;-59
2021/11/08 08:03:22;;;;;;;16.90;8.30;;;;;;;8.84;63.70;99203.48;236613;1193;139548;-58
2021/11/08 08:08:26;;;;;;;13.70;7.70;;;;;;;8.94;63.57;99208.63;236147;1186;138553;-58
2021/11/08 08:13:30;;;;;;;12.00;6.90;;;;;;;9.01;63.52;99218.17;236492;1193;138301;-59
2021/11/08 08:18:37;;;;;;;63.70;39.20;;;;;;;9.07;63.19;99223.70;236450;1193;140173;-58
2021/11/08 08:23:41;;;;;;;15.70;7.50;;;;;;;9.25;63.38;99232.28;236352;1193;139714;-59
2021/11/08 08:28:44;;;;;;;15.00;6.60;;;;;;;9.34;62.80;99234.82;236376;1193;139055;-59
2021/11/08 08:33:47;;;;;;;16.30;7.00;;;;;;;9.39;62.65;99236.48;236476;1194;138870;-59
2021/11/08 08:38:50;;;;;;;19.50;6.70;;;;;;;9.40;62.53;99244.95;236408;1193;139090;-59
2021/11/08 08:44:00;;;;;;;18.60;7.10;;;;;;;9.42;62.47;99255.12;236023;1194;138881;-61
2021/11/08 08:49:03;;;;;;;21.10;6.50;;;;;;;9.43;61.99;99258.40;236316;1195;138864;-59
2021/11/08 08:54:06;;;;;;;12.70;6.10;;;;;;;9.43;61.99;99258.02;236513;1193;138976;-58
2021/11/08 08:59:09;;;;;;;15.20;6.20;;;;;;;9.42;61.94;99264.11;236103;1193;138397;-58
2021/11/08 09:04:12;;;;;;;13.50;6.80;;;;;;;9.40;61.60;99270.61;235712;1193;139186;-59
2021/11/08 09:09:15;;;;;;;10.60;5.30;;;;;;;9.31;61.52;99265.04;236404;1193;138590;-57
2021/11/08 09:14:19;;;;;;;10.40;4.20;;;;;;;9.28;61.49;99267.05;236513;1193;138231;-58
2021/11/08 09:19:22;;;;;;;12.30;4.90;;;;;;;9.31;61.38;99267.18;235887;1193;138615;-62
2021/11/08 09:24:25;;;;;;;10.50;4.30;;;;;;;9.39;61.32;99268.17;236508;1193;139053;-57
2021/11/08 09:29:28;;;;;;;12.00;4.40;;;;;;;9.47;61.23;99271.98;236306;1180;139185;-57
2021/11/08 09:34:36;;;;;;;11.60;5.10;;;;;;;9.57;61.04;99276.42;236171;1193;138619;-59
2021/11/08 09:39:40;;;;;;;14.60;4.20;;;;;;;9.57;60.67;99270.04;236218;1193;139023;-60
2021/11/08 09:44:44;;;;;;;10.00;3.50;;;;;;;9.61;60.66;99266.98;236430;1193;139625;-61
2021/11/08 09:49:51;;;;;;;8.30;3.50;;;;;;;9.68;60.68;99272.61;236422;1194;140754;-60
2021/11/08 09:54:56;;;;;;;9.60;3.60;;;;;;;9.77;60.36;99267.52;236638;1193;138850;-60
2021/11/08 09:59:59;;;;;;;8.90;3.50;;;;;;;9.91;60.00;99271.91;236200;1195;141336;-60
2021/11/08 10:05:09;;;;;;;8.50;3.50;;;;;;;10.06;59.92;99269.67;236428;1195;140620;-58
2021/11/08 10:10:12;;;;;;;9.90;3.20;;;;;;;10.19;60.00;99262.54;236547;1193;138904;-58
2021/11/08 10:15:18;;;;;;;9.80;3.70;;;;;;;10.31;59.35;99262.59;236584;1192;138513;-58
2021/11/08 10:20:32;;;;;;;6.90;2.70;;;;;;;10.39;59.24;99264.98;236588;1193;139227;-57
2021/11/08 10:25:38;;;;;;;8.70;3.00;;;;;;;10.40;58.72;99263.67;236571;1193;138601;-57
2021/11/08 10:30:42;;;;;;;;;;;;;;;10.40;58.64;99263.83;236356;1194;139677;-56
2021/11/08 10:35:55;;;;;;;6.30;2.30;;;;;;;10.37;58.37;99265.94;236656;1193;124997;-60
2021/11/08 10:41:26;;;;;;;4.30;1.60;;;;;;;10.34;57.80;99271.11;236498;1193;139031;-58
2021/11/08 10:46:32;;;;;;;7.40;2.10;;;;;;;10.28;57.86;99265.59;236622;1193;138499;-56
2021/11/08 10:51:50;;;;;;;7.20;2.20;;;;;;;10.28;57.75;99261.72;236308;1193;140065;-58
2021/11/08 10:57:08;;;;;;;6.10;2.20;;;;;;;10.22;57.58;99266.59;236343;1194;138656;-58
2021/11/08 11:02:13;;;;;;;7.00;2.50;;;;;;;10.16;57.56;99270.85;236246;1193;139450;-57
2021/11/08 11:07:29;;;;;;;7.60;2.70;;;;;;;10.13;57.40;99262.70;236595;1193;139005;-58
2021/11/08 11:12:34;;;;;;;7.30;2.30;;;;;;;10.16;57.50;99262.54;236481;1193;138922;-60
2021/11/08 11:17:55;;;;;;;6.00;2.20;;;;;;;10.25;57.39;99259.71;236441;1187;138426;-59
2021/11/08 11:23:07;;;;;;;5.50;2.20;;;;;;;10.35;57.41;99265.70;236035;1193;138633;-61
2021/11/08 11:28:13;;;;;;;7.00;2.20;;;;;;;10.38;57.13;99261.27;236589;1193;140261;-58
2021/11/08 11:33:22;;;;;;;5.70;2.20;;;;;;;10.41;57.11;99266.27;236514;1193;140077;-59
2021/11/08 11:38:30;;;;;;;7.80;2.00;;;;;;;10.45;56.91;99274.75;236573;1194;138821;-59
2021/11/08 11:43:41;;;;;;;7.30;2.30;;;;;;;10.47;56.72;99270.02;236154;1193;138348;-58
2021/11/08 11:48:44;;;;;;;3.90;1.50;;;;;;;10.46;56.52;99276.08;236244;1193;138591;-58
2021/11/08 11:53:48;;;;;;;5.90;1.90;;;;;;;10.44;56.33;99277.09;236414;1193;138567;-59
2021/11/08 11:58:53;;;;;;;5.50;1.90;;;;;;;10.39;55.99;99273.98;236456;1194;138648;-60
2021/11/08 12:03:56;;;;;;;7.30;1.90;;;;;;;10.37;56.19;99271.44;236474;1194;138468;-58
2021/11/08 12:09:02;;;;;;;16.90;10.70;;;;;;;10.47;56.52;99276.02;236562;1193;139195;-61
2021/11/08 12:14:17;;;;;;;6.30;2.40;;;;;;;10.53;55.96;99274.08;236407;1193;138877;-60
2021/11/08 12:19:23;;;;;;;5.80;2.20;;;;;;;10.50;55.89;99265.23;236030;1187;141304;-60
2021/11/08 12:24:30;;;;;;;7.00;2.10;;;;;;;10.47;56.00;99268.59;236416;1195;137987;-60
2021/11/08 12:29:44;;;;;;;8.30;2.60;;;;;;;10.44;55.94;99275.13;236080;1195;138965;-60
2021/11/08 12:34:54;;;;;;;9.40;2.70;;;;;;;10.47;56.40;99274.77;236073;1195;140428;-57
2021/11/08 12:40:00;;;;;;;7.70;2.60;;;;;;;10.54;55.88;99278.98;236357;1195;139505;-58
2021/11/08 12:45:14;;;;;;;5.20;2.40;;;;;;;10.49;56.00;99277.52;236335;1193;139154;-60
2021/11/08 12:50:59;;;;;;;5.50;2.80;;;;;;;10.47;55.85;99277.83;236480;1193;139176;-59
2021/11/08 12:56:20;;;;;;;11.10;3.20;;;;;;;10.45;56.10;99283.10;236700;1193;229016;-58
2021/11/08 13:01:40;;;;;;;9.90;3.10;;;;;;;10.45;55.89;99284.30;236421;1193;139064;-61
2021/11/08 13:06:48;;;;;;;8.20;3.30;;;;;;;10.46;56.13;99285.31;236702;1193;140072;-59
2021/11/08 13:11:57;;;;;;;10.30;3.10;;;;;;;10.45;56.11;99280.92;236898;1193;137939;-59
2021/11/08 13:17:10;;;;;;;8.30;3.20;;;;;;;10.45;55.98;99280.78;236749;1193;139129;-60
2021/11/08 13:22:24;;;;;;;9.70;3.70;;;;;;;10.44;56.24;99280.09;236644;1193;138226;-59
2021/11/08 13:27:28;;;;;;;10.40;3.80;;;;;;;10.46;56.20;99286.59;236687;1193;139365;-58
2021/11/08 13:32:32;;;;;;;9.50;3.50;;;;;;;10.49;56.45;99297.91;236823;1193;138734;-59
2021/11/08 13:37:40;;;;;;;11.70;3.90;;;;;;;10.49;56.29;99302.50;236897;1193;139173;-59
2021/11/08 13:42:45;;;;;;;129.60;69.90;;;;;;;10.47;56.18;99309.55;236770;1193;139096;-58
2021/11/08 13:47:49;;;;;;;14.90;5.80;;;;;;;10.47;56.37;99303.04;236766;1194;141669;-58
2021/11/08 13:52:55;;;;;;;9.80;3.40;;;;;;;10.44;56.19;99309.55;236647;1193;138449;-59
2021/11/08 13:57:59;;;;;;;12.00;3.30;;;;;;;10.40;55.98;99313.34;236318;1193;139508;-59
2021/11/08 14:03:14;;;;;;;8.20;3.30;;;;;;;10.36;55.83;99314.41;236595;1193;138757;-60
2021/11/08 14:08:24;;;;;;;10.50;3.40;;;;;;;10.36;55.99;99315.34;236922;1193;138906;-58
2021/11/08 14:13:33;;;;;;;11.20;3.10;;;;;;;10.36;56.09;99315.67;236481;1193;138730;-59
2021/11/08 14:18:37;;;;;;;5.80;3.10;;;;;;;10.37;55.84;99317.94;237006;1193;139510;-57
2021/11/08 14:23:43;;;;;;;7.90;3.30;;;;;;;10.37;56.09;99320.08;236992;1193;139211;-57
2021/11/08 14:28:48;;;;;;;8.40;3.40;;;;;;;10.38;56.15;99325.29;236792;1193;138387;-59
2021/11/08 14:33:55;;;;;;;26.00;13.40;;;;;;;10.43;56.52;99327.52;236777;1193;139404;-59
2021/11/08 14:39:05;;;;;;;13.40;4.20;;;;;;;10.55;56.86;99330.02;236534;1193;138857;-57
2021/11/08 14:44:09;;;;;;;10.10;4.10;;;;;;;10.55;56.37;99337.64;236761;1193;138965;-59
2021/11/08 14:49:20;;;;;;;10.60;4.10;;;;;;;10.53;56.31;99342.77;236408;1193;138589;-60
2021/11/08 14:54:24;;;;;;;7.90;3.50;;;;;;;10.48;56.10;99339.87;236719;1193;139507;-58
2021/11/08 14:59:34;;;;;;;8.80;3.50;;;;;;;10.39;56.02;99345.99;236968;1194;138890;-58
2021/11/08 15:04:49;;;;;;;13.70;4.50;;;;;;;10.36;56.38;99346.55;236699;1193;139479;-58
2021/11/08 15:09:54;;;;;;;9.20;3.80;;;;;;;10.34;56.40;99353.95;236902;1193;139032;-57
2021/11/08 15:15:03;;;;;;;9.50;4.70;;;;;;;10.32;56.40;99354.71;236788;1194;138490;-57
2021/11/08 15:20:24;;;;;;;12.50;4.80;;;;;;;10.28;56.62;99357.63;236643;1193;138503;-60
2021/11/08 15:25:40;;;;;;;13.70;4.50;;;;;;;10.25;56.73;99366.30;236788;1193;139254;-57
2021/11/08 15:30:53;;;;;;;15.50;5.00;;;;;;;10.36;57.41;99366.95;236563;1193;138757;-59
2021/11/08 15:36:01;;;;;;;9.50;4.40;;;;;;;10.46;56.74;99368.33;236276;1193;138661;-58
2021/11/08 15:41:07;;;;;;;14.50;4.60;;;;;;;10.40;56.58;99375.55;236280;1194;152533;-60
2021/11/08 15:46:14;;;;;;;15.60;4.90;;;;;;;10.35;56.47;99379.23;236326;1194;138870;-59
2021/11/08 15:51:22;;;;;;;10.70;4.40;;;;;;;10.33;56.94;99380.04;236539;1193;139456;-58
2021/11/08 15:56:25;;;;;;;11.30;4.70;;;;;;;10.31;56.61;99390.23;236213;1194;139512;-60
2021/11/08 16:01:28;;;;;;;12.70;5.10;;;;;;;10.29;56.69;99394.98;236115;1193;138605;-57
2021/11/08 16:06:32;;;;;;;17.00;5.40;;;;;;;10.27;56.70;99394.57;236003;1194;140292;-54
2021/11/08 16:11:36;;;;;;;13.40;5.20;;;;;;;10.25;56.61;99395.02;236665;1193;139737;-57
2021/11/08 16:16:41;;;;;;;18.80;5.00;;;;;;;10.23;56.78;99402.41;236456;1193;140669;-57
2021/11/08 16:21:45;;;;;;;9.50;5.00;;;;;;;10.22;56.79;99404.74;236244;1193;141129;-58
2021/11/08 16:26:51;;;;;;;15.10;5.50;;;;;;;10.18;57.01;99409.70;236182;1195;138617;-58
2021/11/08 16:31:54;;;;;;;12.00;5.30;;;;;;;10.18;57.08;99418.98;236528;1193;138785;-60
2021/11/08 16:36:57;;;;;;;10.80;5.60;;;;;;;10.18;56.93;99427.46;236427;1193;139051;-59
2021/11/08 16:42:04;;;;;;;11.40;5.50;;;;;;;10.18;57.14;99432.26;236397;1195;138566;-58
2021/11/08 16:47:08;;;;;;;13.50;5.60;;;;;;;10.17;57.35;99444.55;236323;1193;139327;-59
2021/11/08 16:52:11;;;;;;;225.50;134.70;;;;;;;10.16;57.50;99450.97;236463;1193;139766;-59
2021/11/08 16:57:14;;;;;;;26.30;11.30;;;;;;;10.23;57.86;99451.13;236489;1193;139532;-58
2021/11/08 17:02:19;;;;;;;15.20;7.40;;;;;;;10.24;57.81;99461.05;235800;1193;139618;-57
2021/11/08 17:07:28;;;;;;;20.00;8.10;;;;;;;10.22;57.96;99466.81;236273;1194;139034;-60
2021/11/08 17:17:55;;;;;;;16.50;7.90;;;;;;;10.13;58.20;99473.11;235973;1195;139245;-57
2021/11/08 17:22:58;;;;;;;19.30;8.60;;;;;;;10.09;58.35;99480.77;236297;1194;138527;-59
2021/11/08 17:28:02;;;;;;;18.50;7.90;;;;;;;10.04;58.44;99487.08;236297;1193;139032;-57
2021/11/08 17:33:05;;;;;;;200.20;106.30;;;;;;;10.06;58.62;99493.72;236376;1193;139351;-60
2021/11/08 17:38:09;;;;;;;29.60;14.00;;;;;;;10.10;58.61;99504.13;236317;1193;142408;-59
2021/11/08 17:43:13;;;;;;;23.10;13.80;;;;;;;10.05;58.62;99507.75;235830;1193;139040;-60
2021/11/08 17:48:17;;;;;;;26.50;15.70;;;;;;;9.93;58.81;99514.09;236150;1193;138816;-60
2021/11/08 17:53:22;;;;;;;30.50;16.40;;;;;;;9.82;59.21;99518.19;236276;1193;139714;-57
2021/11/08 17:58:29;;;;;;;30.10;16.90;;;;;;;9.76;59.61;99522.95;236138;1193;142712;-58
2021/11/08 18:03:34;;;;;;;26.00;15.70;;;;;;;9.69;59.82;99525.76;236379;1193;140250;-58
2021/11/08 18:08:38;;;;;;;30.20;16.70;;;;;;;9.66;60.24;99530.52;236362;1193;138959;-59
2021/11/08 18:13:41;;;;;;;26.20;16.80;;;;;;;9.70;60.60;99537.05;236395;1193;138695;-58
2021/11/08 18:18:44;;;;;;;23.50;15.90;;;;;;;9.72;60.86;99538.73;235603;1193;138705;-60
2021/11/08 18:24:00;;;;;;;25.40;15.20;;;;;;;9.67;60.84;99538.05;236491;1193;138817;-59
2021/11/08 18:29:04;;;;;;;27.60;16.30;;;;;;;9.57;61.12;99536.42;236394;1195;138780;-58
2021/11/08 18:34:07;;;;;;;29.10;17.20;;;;;;;9.49;61.47;99537.54;236159;1194;139206;-59
2021/11/08 18:39:10;;;;;;;25.70;17.60;;;;;;;9.44;61.62;99542.93;236412;1193;138607;-60
2021/11/08 18:44:15;;;;;;;26.00;17.30;;;;;;;9.41;62.00;99552.14;236176;1193;138868;-61
2021/11/08 18:49:18;;;;;;;28.30;17.60;;;;;;;9.37;61.92;99554.27;236257;1193;138716;-61
2021/11/08 18:54:27;;;;;;;28.80;17.10;;;;;;;9.36;62.15;99554.67;236409;1195;140983;-58
2021/11/08 18:59:34;;;;;;;25.80;17.60;;;;;;;9.34;62.08;99562.55;236005;1195;139532;-58
2021/11/08 19:04:43;;;;;;;31.90;21.00;;;;;;;9.37;62.58;99559.23;236449;1195;138775;-56
2021/11/08 19:09:57;;;;;;;26.80;17.70;;;;;;;9.41;62.60;99562.73;236228;1195;138823;-60
2021/11/08 19:15:00;;;;;;;27.40;19.20;;;;;;;9.36;62.58;99565.29;235982;1193;138726;-59
2021/11/08 19:20:05;;;;;;;31.00;21.50;;;;;;;9.32;63.01;99572.08;236163;1195;140287;-62
2021/11/08 19:25:09;;;;;;;31.30;21.70;;;;;;;9.30;63.00;99574.97;236411;1195;138547;-61
2021/11/08 19:30:17;;;;;;;32.90;21.90;;;;;;;9.28;63.14;99581.83;236489;1193;138892;-62
2021/11/08 19:40:38;;;;;;;30.00;20.10;;;;;;;9.22;63.46;99596.05;235913;1193;139536;-61
2021/11/08 19:45:43;;;;;;;29.90;19.70;;;;;;;9.29;63.70;99602.31;236384;1193;139308;-59
2021/11/08 19:50:46;;;;;;;28.70;21.00;;;;;;;9.32;63.68;99606.40;236534;1193;138805;-62
2021/11/08 19:55:51;;;;;;;28.60;20.60;;;;;;;9.35;63.79;99612.99;236411;1187;139325;-56
2021/11/08 20:00:58;;;;;;;32.30;19.70;;;;;;;9.37;64.03;99618.72;236573;1193;138756;-61
2021/11/08 20:06:01;;;;;;;37.60;23.80;;;;;;;9.41;64.07;99617.98;236158;1195;139277;-61
2021/11/08 20:11:05;;;;;;;38.00;24.60;;;;;;;9.48;64.11;99617.13;236282;1195;138598;-60
2021/11/08 20:16:10;;;;;;;34.10;24.40;;;;;;;9.43;64.10;99621.62;236240;1195;139035;-57
2021/11/08 20:21:14;;;;;;;36.30;24.40;;;;;;;9.38;63.96;99626.48;236150;1193;139423;-57
2021/11/08 20:26:18;;;;;;;36.30;26.30;;;;;;;9.37;64.24;99630.94;236641;1193;139743;-62
2021/11/08 20:41:55;;;;;;;41.80;27.30;;;;;;;9.50;64.68;99641.84;236542;1193;140234;-58
2021/11/08 21:02:59;;;;;;;31.40;20.40;;;;;;;9.41;64.35;99654.70;236495;1193;138768;-57
2021/11/08 21:08:22;;;;;;;29.60;20.50;;;;;;;9.39;64.39;99655.46;236270;1193;138643;-58
2021/11/08 21:18:43;;;;;;;32.60;19.80;;;;;;;9.33;64.27;99652.02;236026;1195;138493;-59
2021/11/08 21:23:46;;;;;;;32.60;21.00;;;;;;;9.28;64.43;99663.58;236566;1193;138466;-60
2021/11/08 21:29:13;;;;;;;37.70;20.90;;;;;;;9.23;64.58;99666.30;236685;1193;138733;-60
2021/11/08 21:39:38;;;;;;;36.90;20.00;;;;;;;9.17;64.47;99664.46;236348;1193;141218;-59
2021/11/08 21:44:44;;;;;;;31.20;18.20;;;;;;;9.16;64.74;99664.30;236150;1195;139186;-59
2021/11/08 21:49:47;;;;;;;33.40;20.60;;;;;;;9.12;64.75;99669.97;236200;1195;139099;-59
2021/11/08 21:54:51;;;;;;;32.40;20.10;;;;;;;9.06;64.76;99671.86;236099;1195;139081;-58
2021/11/08 21:59:54;;;;;;;32.40;20.70;;;;;;;9.03;64.92;99674.48;236003;1194;140332;-60
2021/11/08 22:04:57;;;;;;;33.50;20.60;;;;;;;9.01;65.06;99679.55;236197;1193;138804;-60
2021/11/08 22:10:05;;;;;;;24.50;15.80;;;;;;;8.97;65.26;99687.31;236499;1194;139500;-60
2021/11/08 22:15:11;;;;;;;33.50;21.00;;;;;;;8.95;65.35;99689.87;236246;1194;139711;-62
2021/11/08 22:20:15;;;;;;;33.60;20.20;;;;;;;8.95;65.55;99690.60;236400;1195;139703;-60
2021/11/08 22:25:19;;;;;;;32.70;21.20;;;;;;;8.93;65.52;99692.64;236453;1195;138606;-59
2021/11/08 22:30:22;;;;;;;35.30;22.00;;;;;;;8.94;65.62;99694.52;236503;1194;139243;-61
2021/11/08 22:35:26;;;;;;;37.80;23.30;;;;;;;8.96;65.87;99696.75;236358;1193;139772;-61
2021/11/08 22:40:29;;;;;;;33.40;22.50;;;;;;;8.92;65.99;99702.25;236659;1193;138469;-59
2021/11/08 22:45:32;;;;;;;38.00;22.80;;;;;;;8.89;66.01;99706.96;236203;1195;139677;-59
2021/11/08 22:50:37;;;;;;;38.00;23.70;;;;;;;8.93;66.40;99706.42;236101;1195;139353;-59
2021/11/08 22:55:40;;;;;;;38.00;25.50;;;;;;;8.92;66.19;99708.26;236505;1193;138747;-60
2021/11/08 23:01:23;;;;;;;43.70;26.40;;;;;;;8.91;66.58;99704.59;209639;1349;636132;-56
2021/11/08 23:06:26;;;;;;;45.20;26.90;;;;;;;8.86;66.62;99712.61;210867;1338;139595;-58
2021/11/08 23:11:29;;;;;;;47.10;27.40;;;;;;;8.82;66.74;99714.39;210988;1339;426399;-55
2021/11/08 23:16:33;;;;;;;40.00;26.20;;;;;;;8.82;66.85;99721.81;211584;1332;139314;-58
2021/11/08 23:21:36;;;;;;;43.70;28.00;;;;;;;8.84;67.02;99718.52;211103;1336;139222;-57
2021/11/08 23:26:40;;;;;;;47.70;28.70;;;;;;;8.85;67.07;99722.02;211349;1330;138644;-58
2021/11/08 23:31:43;;;;;;;46.00;28.90;;;;;;;8.81;67.10;99728.20;210954;1336;138824;-59
2021/11/08 23:36:46;;;;;;;42.70;29.00;;;;;;;8.80;67.20;99731.11;211012;1335;139135;-57
2021/11/08 23:41:49;;;;;;;44.20;29.60;;;;;;;8.74;67.30;99729.90;211269;1336;139001;-58
2021/11/08 23:46:52;;;;;;;50.80;29.60;;;;;;;8.75;67.31;99729.35;211230;1338;139287;-59
2021/11/08 23:51:55;;;;;;;46.30;30.30;;;;;;;8.77;67.56;99730.16;211008;1336;139446;-58
2021/11/08 23:56:58;;;;;;;46.20;30.20;;;;;;;8.80;67.79;99735.30;210825;1332;138965;-58
